Date,TemperatureHighF,TemperatureAvgF,TemperatureLowF,DewpointHighF,DewpointAvgF,DewpointLowF,HumidityHigh,HumidityAvg,HumidityLow,PressureMaxIn,PressureMinIn,WindSpeedMaxMPH,WindSpeedAvgMPH,GustSpeedMaxMPH,PrecipitationSumIn
2013-8-1,77.4,68.1,60.1,60.9,58.3,55.2,94,73,48,30.03,29.92,10,2,16,0.00
2013-8-2,80.4,69.9,62.2,68.1,60.7,56.0,95,74,49,29.98,29.86,7,2,12,0.10
2013-8-3,77.8,66.1,54.6,59.6,54.2,51.0,94,68,43,30.17,29.99,9,1,12,0.00
2013-8-4,77.5,64.3,53.5,62.8,55.8,50.6,96,75,49,30.26,30.13,5,0,6,0.00
2013-8-5,72.6,64.5,57.8,64.9,60.2,54.9,93,86,71,30.13,29.88,11,1,11,0.02
2013-8-6,83.0,73.0,64.7,72.3,67.6,62.9,96,84,65,29.90,29.80,7,1,8,0.00
2013-8-7,80.2,72.5,63.2,71.0,65.9,58.9,95,80,62,29.99,29.76,9,1,14,0.00
2013-8-8,78.7,68.3,59.9,66.3,61.6,57.2,95,80,58,30.07,29.99,3,0,8,0.00
2013-8-9,79.0,68.8,60.3,67.5,60.0,54.7,88,74,56,30.09,30.00,6,1,13,0.00
2013-8-10,75.8,65.2,55.3,60.5,56.0,52.4,93,74,54,30.18,30.09,7,1,8,0.00
2013-8-11,75.2,65.4,57.1,67.4,60.9,53.3,95,86,73,30.16,30.05,7,0,11,0.15
2013-8-12,79.9,70.3,62.9,70.7,64.3,58.0,96,82,57,30.06,29.93,6,1,16,0.11
2013-8-13,71.1,62.7,53.7,58.3,52.5,48.1,89,70,50,30.20,30.00,8,1,11,0.00
2013-8-14,72.3,60.8,49.6,60.4,52.4,47.4,95,75,49,30.26,30.16,4,0,8,0.00
2013-8-15,77.6,65.8,57.1,61.9,54.9,51.7,86,69,44,30.19,30.12,6,1,9,0.00
2013-8-16,81.6,67.6,56.2,62.8,56.1,51.5,93,69,39,30.22,30.15,7,1,9,0.00
2013-8-17,80.6,68.0,56.2,62.8,56.8,53.2,94,70,41,30.27,30.18,4,0,6,0.00
2013-8-18,80.8,68.2,55.3,65.5,57.4,52.1,95,70,42,30.24,30.11,4,0,7,0.00
2013-8-19,81.1,70.1,60.4,66.8,60.9,56.1,90,74,54,30.12,30.04,6,1,11,0.00
2013-8-20,86.1,74.2,64.8,69.9,65.0,60.1,92,74,53,30.09,30.00,6,1,11,0.00
2013-8-21,89.0,78.4,69.6,74.4,68.9,64.8,86,74,55,30.03,29.92,10,2,14,0.00
2013-8-22,76.5,71.3,66.6,71.5,68.0,64.4,96,89,79,30.15,29.98,11,1,24,0.62
2013-8-23,82.0,69.6,58.2,66.1,60.7,56.5,96,76,48,30.21,30.13,6,0,8,0.00
2013-8-24,83.2,70.6,57.7,71.4,63.1,53.7,91,78,62,30.27,30.17,7,1,10,0.00
2013-8-25,89.0,77.4,68.4,75.6,68.1,63.1,89,74,57,30.20,30.09,9,2,15,0.00
2013-8-26,90.3,79.3,71.2,77.9,71.2,65.4,85,77,62,30.13,29.96,11,2,12,0.00
2013-8-27,93.8,82.8,74.1,77.7,73.2,69.3,86,74,55,29.96,29.80,9,2,17,0.00
2013-8-28,82.8,76.8,71.0,73.9,71.3,67.6,93,84,69,30.05,29.83,5,0,8,0.00
2013-8-29,85.5,74.9,64.2,74.4,67.9,62.1,97,80,59,30.10,29.97,5,0,8,0.00
2013-8-30,93.6,79.3,70.8,79.7,72.4,67.0,95,80,60,29.97,29.77,8,1,12,0.00
2013-8-31,81.1,72.1,65.7,71.1,65.8,61.7,91,81,68,29.89,29.80,4,0,8,0.00